createdAt,value
2019-04-28T00:01:07.188Z,27.93
2019-04-28T00:03:36.846Z,27.53
2019-04-28T00:06:06.187Z,27.77
2019-04-28T00:08:35.913Z,27.50
2019-04-28T00:11:05.537Z,25.67
2019-04-28T00:13:35.255Z,26.10
2019-04-28T00:16:06.682Z,28.27
2019-04-28T00:18:36.077Z,26.43
2019-04-28T00:21:15.527Z,25.27
2019-04-28T00:23:58.080Z,26.20
2019-04-28T00:26:58.680Z,25.90
2019-04-28T00:29:38.513Z,26.13
2019-04-28T00:31:58.950Z,24.37
2019-04-28T00:34:30.635Z,25.43
2019-04-28T00:37:21.597Z,26.07
2019-04-28T00:39:51.207Z,27.67
2019-04-28T00:42:22.731Z,26.37
2019-04-28T00:44:52.648Z,26.90
2019-04-28T00:47:22.697Z,27.77
2019-04-28T00:49:52.685Z,27.87
2019-04-28T00:52:22.331Z,27.93
2019-04-28T00:54:52.625Z,29.37
2019-04-28T00:57:22.552Z,28.33
2019-04-28T00:59:58.005Z,27.83
2019-04-28T01:02:32.278Z,30.13
2019-04-28T01:05:01.997Z,30.43
2019-04-28T01:07:32.979Z,30.40
2019-04-28T01:10:02.451Z,28.63
2019-04-28T01:12:31.752Z,29.50
2019-04-28T01:15:04.567Z,29.70
2019-04-28T01:17:49.756Z,30.73
2019-04-28T01:20:20.308Z,29.33
2019-04-28T01:22:49.878Z,29.30
2019-04-28T01:25:20.320Z,31.07
2019-04-28T01:27:54.536Z,30.63
2019-04-28T01:30:45.951Z,29.50
2019-04-28T01:33:46.647Z,28.60
2019-04-28T01:36:16.396Z,28.83
2019-04-28T01:38:45.630Z,28.27
2019-04-28T01:41:15.696Z,28.63
2019-04-28T01:43:45.461Z,27.53
2019-04-28T01:46:14.731Z,27.60
2019-04-28T01:48:44.727Z,28.07
2019-04-28T01:51:14.011Z,28.23
2019-04-28T01:53:43.315Z,28.23
2019-04-28T01:56:12.918Z,29.23
2019-04-28T01:58:42.481Z,28.40
2019-04-28T02:01:12.097Z,27.90
2019-04-28T02:03:41.475Z,28.07
2019-04-28T02:06:11.672Z,28.13
2019-04-28T02:08:41.275Z,28.17
2019-04-28T02:11:11.344Z,27.67
2019-04-28T02:13:40.596Z,27.37
2019-04-28T02:16:09.899Z,29.23
2019-04-28T02:18:39.995Z,27.23
2019-04-28T02:21:23.051Z,28.33
2019-04-28T02:23:54.153Z,27.60
2019-04-28T02:26:23.841Z,28.63
2019-04-28T02:28:53.367Z,26.90
2019-04-28T02:31:24.411Z,28.63
2019-04-28T02:33:54.547Z,28.37
2019-04-28T02:36:24.396Z,26.37
2019-04-28T02:38:53.761Z,29.30
2019-04-28T02:41:23.050Z,26.73
2019-04-28T02:43:52.748Z,27.87
2019-04-28T02:46:22.484Z,27.50
2019-04-28T02:48:54.125Z,27.40
2019-04-28T02:51:30.825Z,27.40
2019-04-28T02:54:00.663Z,27.87
2019-04-28T02:56:31.004Z,26.77
2019-04-28T02:59:01.172Z,26.23
2019-04-28T03:01:30.911Z,28.13
2019-04-28T03:04:01.450Z,28.30
2019-04-28T03:06:31.424Z,26.13
2019-04-28T03:09:01.667Z,27.87
2019-04-28T03:11:31.598Z,28.70
2019-04-28T03:14:01.716Z,27.43
2019-04-28T03:16:31.747Z,26.37
2019-04-28T03:19:01.431Z,28.57
2019-04-28T03:21:31.430Z,27.30
2019-04-28T03:24:01.401Z,29.40
2019-04-28T03:26:47.024Z,30.10
2019-04-28T03:29:34.088Z,33.23
2019-04-28T03:32:28.935Z,34.27
2019-04-28T03:35:02.317Z,34.17
2019-04-28T03:37:31.558Z,33.73
2019-04-28T03:40:00.770Z,31.30
2019-04-28T03:42:31.360Z,31.10
2019-04-28T03:45:03.148Z,28.67
2019-04-28T03:47:32.853Z,29.73
2019-04-28T03:50:03.175Z,27.73
2019-04-28T03:52:33.129Z,27.83
2019-04-28T03:55:02.411Z,29.40
2019-04-28T03:57:32.429Z,26.43
2019-04-28T04:00:02.037Z,26.10
2019-04-28T04:02:31.536Z,25.90
2019-04-28T04:05:03.950Z,25.07
2019-04-28T04:07:32.240Z,25.37
2019-04-28T04:10:11.153Z,25.50
2019-04-28T04:12:47.518Z,28.57
2019-04-28T04:15:41.682Z,28.40
2019-04-28T04:18:15.426Z,27.57
2019-04-28T04:20:45.462Z,26.53
2019-04-28T04:23:14.741Z,27.80
2019-04-28T04:25:44.405Z,28.73
2019-04-28T04:28:14.484Z,26.53
2019-04-28T04:30:43.743Z,27.57
2019-04-28T04:33:13.408Z,25.77
2019-04-28T04:35:43.612Z,25.63
2019-04-28T04:38:13.229Z,24.67
2019-04-28T04:40:43.073Z,26.33
2019-04-28T04:43:12.430Z,25.23
2019-04-28T04:45:42.388Z,25.43
2019-04-28T04:48:12.225Z,24.03
2019-04-28T04:50:41.543Z,23.43
2019-04-28T04:53:11.212Z,22.40
2019-04-28T04:55:41.149Z,25.10
2019-04-28T04:58:11.272Z,24.37
2019-04-28T05:01:02.883Z,26.27
2019-04-28T05:03:34.732Z,26.70
2019-04-28T05:06:23.322Z,25.27
2019-04-28T05:08:53.375Z,27.53
2019-04-28T05:11:22.659Z,27.23
2019-04-28T05:13:51.979Z,26.40
2019-04-28T05:16:21.267Z,28.90
2019-04-28T05:18:50.901Z,30.27
2019-04-28T05:21:21.535Z,29.57
2019-04-28T05:24:17.439Z,28.83
2019-04-28T05:26:48.997Z,30.00
2019-04-28T05:29:21.752Z,28.97
2019-04-28T05:31:50.556Z,30.20
2019-04-28T05:34:20.524Z,30.73
2019-04-28T05:36:50.629Z,32.10
2019-04-28T05:39:20.367Z,30.17
2019-04-28T05:41:50.651Z,29.13
2019-04-28T05:44:20.883Z,29.70
2019-04-28T05:46:51.161Z,29.23
2019-04-28T05:49:39.794Z,29.67
2019-04-28T05:52:29.929Z,31.37
2019-04-28T05:55:06.362Z,29.23
2019-04-28T05:57:43.463Z,30.20
2019-04-28T06:00:31.703Z,28.90
2019-04-28T06:03:01.833Z,31.53
2019-04-28T06:05:32.042Z,31.13
2019-04-28T06:08:13.393Z,29.13
2019-04-28T06:10:42.694Z,29.97
2019-04-28T06:13:12.345Z,27.73
2019-04-28T06:15:42.033Z,30.43
2019-04-28T06:18:11.362Z,29.60
2019-04-28T06:20:41.141Z,29.93
2019-04-28T06:23:10.502Z,29.40
2019-04-28T06:25:40.084Z,29.80
2019-04-28T06:28:09.409Z,29.20
2019-04-28T06:30:39.076Z,31.73
2019-04-28T06:33:08.992Z,26.33
2019-04-28T06:35:39.057Z,28.47
2019-04-28T06:38:09.475Z,27.33
2019-04-28T06:40:39.853Z,27.27
2019-04-28T06:43:09.126Z,27.67
2019-04-28T06:45:38.799Z,28.20
2019-04-28T06:48:08.441Z,28.93
2019-04-28T06:50:38.128Z,29.40
2019-04-28T06:53:07.472Z,33.17
2019-04-28T06:55:37.181Z,30.43
2019-04-28T06:58:06.859Z,28.40
2019-04-28T07:00:36.300Z,27.03
2019-04-28T07:03:05.899Z,25.97
2019-04-28T07:05:35.710Z,28.27
2019-04-28T07:08:05.392Z,28.83
2019-04-28T07:10:35.461Z,28.50
2019-04-28T07:13:05.152Z,28.80
2019-04-28T07:15:34.509Z,28.77
2019-04-28T07:18:04.145Z,28.27
2019-04-28T07:20:58.264Z,29.50
2019-04-28T07:23:27.644Z,27.37
2019-04-28T07:25:57.489Z,22.53
2019-04-28T07:28:26.734Z,24.07
2019-04-28T07:30:56.055Z,24.87
2019-04-28T07:33:35.531Z,23.73
2019-04-28T07:35:56.335Z,26.70
2019-04-28T07:38:25.756Z,28.50
2019-04-28T07:40:55.052Z,29.03
2019-04-28T07:43:25.468Z,27.47
2019-04-28T07:45:54.815Z,30.00
2019-04-28T07:48:24.089Z,26.70
2019-04-28T07:50:53.807Z,28.67
2019-04-28T07:53:35.626Z,26.73
2019-04-28T07:56:07.246Z,26.33
2019-04-28T07:58:37.425Z,25.80
2019-04-28T08:01:08.947Z,23.90
2019-04-28T08:03:48.813Z,22.70
2019-04-28T08:06:09.834Z,23.70
2019-04-28T08:08:40.018Z,21.87
2019-04-28T08:11:09.694Z,22.70
2019-04-28T08:13:39.294Z,19.30
2019-04-28T08:16:08.592Z,21.50
2019-04-28T08:18:38.036Z,22.17
2019-04-28T08:21:07.438Z,21.27
2019-04-28T08:23:46.590Z,19.93
2019-04-28T08:26:08.459Z,20.87
2019-04-28T08:28:37.785Z,20.67
2019-04-28T08:31:09.079Z,19.83
2019-04-28T08:34:02.575Z,19.23
2019-04-28T08:36:29.014Z,18.80
2019-04-28T08:38:58.998Z,21.30
2019-04-28T08:41:29.156Z,22.37
2019-04-28T08:43:59.290Z,20.20
2019-04-28T08:46:28.704Z,21.23
2019-04-28T08:48:58.879Z,18.33
2019-04-28T08:51:28.328Z,17.33
2019-04-28T08:53:58.040Z,19.40
2019-04-28T08:56:27.512Z,20.57
2019-04-28T08:58:57.181Z,18.77
2019-04-28T09:01:27.239Z,17.50
2019-04-28T09:03:57.948Z,15.87
2019-04-28T09:06:28.231Z,17.83
2019-04-28T09:08:58.349Z,17.10
2019-04-28T09:11:27.875Z,13.57
2019-04-28T09:13:57.755Z,13.43
2019-04-28T09:16:27.221Z,13.37
2019-04-28T09:18:56.988Z,12.67
2019-04-28T09:21:26.692Z,14.27
2019-04-28T09:23:56.322Z,15.10
2019-04-28T09:26:26.179Z,13.30
2019-04-28T09:28:56.175Z,13.70
2019-04-28T09:31:26.080Z,13.67
2019-04-28T09:33:55.427Z,15.23
2019-04-28T09:36:25.890Z,15.00
2019-04-28T09:38:57.357Z,17.40
2019-04-28T09:41:27.124Z,15.43
2019-04-28T09:44:13.101Z,13.40
2019-04-28T09:46:43.325Z,13.47
2019-04-28T09:49:12.758Z,12.30
2019-04-28T09:51:42.965Z,14.90
2019-04-28T09:54:13.113Z,12.73
2019-04-28T09:56:55.732Z,14.27
2019-04-28T09:59:14.751Z,12.93
2019-04-28T10:01:45.873Z,12.50
2019-04-28T10:04:15.608Z,14.33
2019-04-28T10:06:46.379Z,14.13
2019-04-28T10:09:18.813Z,12.80
2019-04-28T10:11:49.787Z,13.47
2019-04-28T10:14:19.836Z,13.13
2019-04-28T10:16:49.706Z,13.00
2019-04-28T10:19:19.915Z,12.93
2019-04-28T10:21:50.220Z,12.50
2019-04-28T10:24:21.033Z,13.40
2019-04-28T10:26:51.084Z,11.73
2019-04-28T10:29:21.351Z,11.23
2019-04-28T10:31:52.913Z,10.83
2019-04-28T10:34:25.478Z,11.67
2019-04-28T10:36:55.446Z,13.17
2019-04-28T10:39:36.086Z,10.20
2019-04-28T10:42:07.856Z,10.87
2019-04-28T10:44:40.788Z,12.17
2019-04-28T10:47:11.163Z,12.50
2019-04-28T10:49:41.279Z,11.17
2019-04-28T10:52:11.537Z,10.43
2019-04-28T10:54:45.650Z,11.23
2019-04-28T10:57:16.159Z,10.77
2019-04-28T10:59:46.205Z,11.13
2019-04-28T11:02:17.018Z,11.73
2019-04-28T11:05:08.764Z,12.87
2019-04-28T11:07:34.165Z,11.50
2019-04-28T11:10:16.644Z,10.37
2019-04-28T11:12:46.012Z,8.53
2019-04-28T11:15:46.803Z,9.90
2019-04-28T11:18:16.736Z,10.17
2019-04-28T11:20:46.024Z,9.93
2019-04-28T11:23:15.766Z,12.40
2019-04-28T11:25:48.339Z,11.73
2019-04-28T11:28:18.387Z,11.70
2019-04-28T11:30:48.753Z,10.70
2019-04-28T11:33:49.823Z,9.73
2019-04-28T11:36:20.815Z,11.63
2019-04-28T11:38:50.285Z,12.83
2019-04-28T11:41:19.789Z,13.40
2019-04-28T11:43:49.530Z,12.87
2019-04-28T11:46:21.257Z,11.83
2019-04-28T11:48:51.089Z,11.20
2019-04-28T11:51:20.941Z,12.07
2019-04-28T11:53:51.294Z,14.17
2019-04-28T11:56:21.259Z,12.30
2019-04-28T11:58:51.162Z,10.77
2019-04-28T12:01:23.526Z,10.13
2019-04-28T12:03:55.152Z,9.60
2019-04-28T12:06:24.601Z,10.20
2019-04-28T12:08:56.697Z,8.30
2019-04-28T12:11:30.221Z,10.63
2019-04-28T12:14:30.518Z,9.83
2019-04-28T12:17:22.378Z,10.97
2019-04-28T12:19:58.272Z,11.33
2019-04-28T12:22:28.755Z,11.50
2019-04-28T12:24:58.417Z,11.33
2019-04-28T12:27:28.763Z,12.40
2019-04-28T12:29:58.617Z,12.43
2019-04-28T12:32:27.963Z,13.57
2019-04-28T12:34:57.305Z,13.10
2019-04-28T12:37:27.465Z,14.57
2019-04-28T12:39:56.872Z,14.87
2019-04-28T12:42:26.568Z,15.97
2019-04-28T12:44:56.360Z,15.73
2019-04-28T12:47:25.772Z,15.03
2019-04-28T12:50:17.671Z,16.47
2019-04-28T12:52:47.874Z,17.00
2019-04-28T12:55:17.590Z,17.13
2019-04-28T12:57:47.578Z,14.70
2019-04-28T13:00:36.043Z,13.93
2019-04-28T13:03:28.954Z,11.73
2019-04-28T13:06:02.549Z,13.43
2019-04-28T13:08:30.365Z,11.50
2019-04-28T13:11:00.510Z,13.87
2019-04-28T13:13:30.265Z,12.97
2019-04-28T13:16:00.112Z,15.57
2019-04-28T13:18:30.015Z,13.60
2019-04-28T13:21:00.050Z,14.47
2019-04-28T13:23:29.688Z,13.53
2019-04-28T13:25:59.417Z,14.20
2019-04-28T13:28:28.796Z,12.07
2019-04-28T13:30:58.113Z,12.93
2019-04-28T13:33:28.103Z,11.70
2019-04-28T13:35:57.418Z,13.13
2019-04-28T13:38:26.970Z,14.33
2019-04-28T13:40:56.380Z,14.40
2019-04-28T13:43:25.952Z,14.13
2019-04-28T13:45:55.978Z,13.37
2019-04-28T13:48:26.227Z,12.77
2019-04-28T13:50:56.010Z,12.83
2019-04-28T13:53:25.298Z,13.17
2019-04-28T13:56:01.925Z,13.63
2019-04-28T13:58:36.584Z,13.70
2019-04-28T14:01:16.448Z,13.83
2019-04-28T14:04:05.380Z,14.73
2019-04-28T14:06:38.003Z,15.10
2019-04-28T14:09:12.519Z,13.97
2019-04-28T14:11:42.762Z,13.00
2019-04-28T14:14:13.138Z,14.60
2019-04-28T14:16:42.575Z,15.43
2019-04-28T14:19:12.157Z,14.60
2019-04-28T14:21:41.451Z,14.23
2019-04-28T14:24:11.318Z,14.23
2019-04-28T14:26:40.740Z,14.17
2019-04-28T14:29:10.092Z,15.10
2019-04-28T14:31:39.358Z,14.30
2019-04-28T14:34:09.057Z,14.97
2019-04-28T14:36:42.290Z,13.97
2019-04-28T14:39:09.482Z,13.73
2019-04-28T14:41:38.913Z,12.97
2019-04-28T14:44:08.152Z,11.83
2019-04-28T14:46:37.476Z,12.77
2019-04-28T14:49:07.685Z,12.67
2019-04-28T14:51:37.403Z,13.30
2019-04-28T14:54:06.876Z,13.67
2019-04-28T14:56:36.120Z,13.80
2019-04-28T14:59:05.449Z,13.87
2019-04-28T15:01:53.774Z,12.37
2019-04-28T15:04:30.245Z,13.03
2019-04-28T15:07:03.922Z,13.70
2019-04-28T15:10:05.568Z,13.00
2019-04-28T15:12:35.512Z,13.10
2019-04-28T15:15:04.940Z,12.97
2019-04-28T15:17:34.642Z,15.70
2019-04-28T15:20:04.180Z,15.43
2019-04-28T15:22:33.978Z,14.87
2019-04-28T15:25:03.438Z,14.63
2019-04-28T15:27:33.510Z,14.47
2019-04-28T15:30:02.846Z,16.07
2019-04-28T15:32:32.777Z,15.03
2019-04-28T15:35:02.200Z,15.23
2019-04-28T15:37:31.939Z,15.40
2019-04-28T15:40:01.936Z,15.77
2019-04-28T15:42:31.635Z,15.67
2019-04-28T15:45:01.573Z,16.30
2019-04-28T15:47:31.029Z,17.90
2019-04-28T15:50:00.576Z,17.17
2019-04-28T15:52:30.365Z,17.57
2019-04-28T15:55:00.662Z,19.40
2019-04-28T15:57:29.995Z,18.43
2019-04-28T16:00:00.144Z,18.10
2019-04-28T16:02:30.510Z,18.70
2019-04-28T16:05:00.226Z,18.30
2019-04-28T16:07:29.714Z,19.13
2019-04-28T16:09:59.436Z,19.27
2019-04-28T16:12:30.310Z,19.43
2019-04-28T16:15:00.178Z,19.23
2019-04-28T16:17:30.428Z,19.50
2019-04-28T16:20:00.157Z,19.33
2019-04-28T16:22:30.584Z,17.57
2019-04-28T16:25:00.568Z,17.03
2019-04-28T16:27:31.590Z,17.80
2019-04-28T16:30:02.068Z,18.03
2019-04-28T16:32:32.151Z,17.90
2019-04-28T16:35:01.838Z,19.93
2019-04-28T16:37:38.519Z,18.17
2019-04-28T16:40:06.596Z,21.63
2019-04-28T16:42:41.116Z,20.23
2019-04-28T16:45:18.594Z,19.07
2019-04-28T16:47:48.396Z,18.17
2019-04-28T16:50:17.721Z,19.00
2019-04-28T16:52:47.275Z,19.77
2019-04-28T16:55:20.885Z,20.17
2019-04-28T16:58:07.829Z,20.30
2019-04-28T17:01:12.534Z,19.93
2019-04-28T17:03:42.964Z,21.40
2019-04-28T17:06:12.645Z,19.97
2019-04-28T17:08:44.591Z,19.30
2019-04-28T17:11:13.518Z,19.93
2019-04-28T17:13:42.888Z,19.50
2019-04-28T17:16:13.006Z,17.77
2019-04-28T17:18:42.874Z,17.57
2019-04-28T17:21:12.199Z,17.27
2019-04-28T17:23:41.953Z,17.80
2019-04-28T17:26:12.453Z,14.13
2019-04-28T17:28:41.842Z,12.77
2019-04-28T17:31:12.092Z,13.90
2019-04-28T17:33:41.782Z,14.80
2019-04-28T17:36:11.700Z,14.57
2019-04-28T17:38:41.494Z,15.33
2019-04-28T17:41:11.258Z,14.50
2019-04-28T17:43:40.992Z,15.37
2019-04-28T17:46:10.957Z,16.50
2019-04-28T17:48:44.284Z,13.93
2019-04-28T17:51:13.768Z,14.07
2019-04-28T17:53:43.131Z,13.73
2019-04-28T17:56:12.952Z,12.43
2019-04-28T17:58:44.175Z,13.00
2019-04-28T18:01:44.748Z,11.77
2019-04-28T18:04:32.484Z,11.80
2019-04-28T18:07:07.611Z,11.83
2019-04-28T18:09:37.156Z,12.13
2019-04-28T18:12:07.240Z,12.53
2019-04-28T18:14:38.501Z,13.03
2019-04-28T18:17:25.163Z,12.63
2019-04-28T18:19:54.841Z,12.10
2019-04-28T18:22:24.216Z,12.97
2019-04-28T18:24:54.685Z,12.23
2019-04-28T18:27:24.182Z,14.03
2019-04-28T18:29:53.757Z,13.23
2019-04-28T18:32:40.342Z,13.77
2019-04-28T18:35:25.173Z,11.87
2019-04-28T18:38:03.168Z,11.43
2019-04-28T18:40:57.218Z,15.00
2019-04-28T18:43:45.756Z,14.90
2019-04-28T18:46:18.385Z,15.90
2019-04-28T18:48:47.972Z,15.37
2019-04-28T18:51:17.511Z,15.57
2019-04-28T18:53:47.586Z,13.03
2019-04-28T18:56:17.176Z,11.30
2019-04-28T18:58:47.103Z,12.87
2019-04-28T19:01:26.556Z,12.83
2019-04-28T19:03:56.486Z,13.50
2019-04-28T19:06:27.435Z,13.33
2019-04-28T19:09:02.551Z,12.40
2019-04-28T19:11:40.715Z,12.53
2019-04-28T19:14:26.706Z,11.17
2019-04-28T19:17:15.428Z,11.67
2019-04-28T19:19:44.822Z,11.47
2019-04-28T19:22:15.033Z,12.40
2019-04-28T19:24:45.059Z,11.40
2019-04-28T19:27:15.017Z,12.07
2019-04-28T19:29:44.393Z,10.63
2019-04-28T19:32:13.734Z,11.03
2019-04-28T19:34:43.702Z,12.17
2019-04-28T19:37:13.546Z,11.03
2019-04-28T19:39:43.275Z,11.37
2019-04-28T19:42:13.767Z,11.57
2019-04-28T19:44:43.454Z,10.97
2019-04-28T19:47:12.982Z,9.83
2019-04-28T19:49:42.336Z,10.80
2019-04-28T19:52:11.971Z,11.90
2019-04-28T19:55:00.355Z,10.70
2019-04-28T19:57:50.187Z,11.00
2019-04-28T20:00:45.397Z,10.70
2019-04-28T20:03:15.159Z,10.80
2019-04-28T20:05:44.565Z,11.27
2019-04-28T20:08:14.314Z,11.77
2019-04-28T20:10:44.381Z,12.33
2019-04-28T20:13:13.817Z,12.80
2019-04-28T20:15:43.827Z,12.33
2019-04-28T20:18:13.159Z,12.80
2019-04-28T20:20:42.905Z,12.73
2019-04-28T20:23:12.644Z,12.03
2019-04-28T20:25:42.738Z,12.77
2019-04-28T20:28:12.791Z,11.30
2019-04-28T20:30:43.185Z,12.33
2019-04-28T20:33:12.581Z,11.93
2019-04-28T20:35:47.626Z,11.90
2019-04-28T20:38:26.842Z,12.77
2019-04-28T20:41:14.615Z,12.33
2019-04-28T20:43:44.299Z,11.00
2019-04-28T20:46:14.682Z,12.10
2019-04-28T20:48:44.085Z,13.67
2019-04-28T20:51:14.004Z,12.60
2019-04-28T20:53:43.570Z,12.27
2019-04-28T20:56:13.382Z,10.87
2019-04-28T20:58:42.975Z,11.80
2019-04-28T21:01:12.763Z,12.13
2019-04-28T21:03:42.280Z,11.30
2019-04-28T21:06:12.910Z,11.07
2019-04-28T21:08:42.246Z,10.00
2019-04-28T21:11:12.403Z,11.03
2019-04-28T21:13:42.441Z,11.67
2019-04-28T21:16:12.209Z,11.43
2019-04-28T21:18:41.923Z,12.20
2019-04-28T21:21:11.494Z,14.67
2019-04-28T21:23:41.281Z,10.20
2019-04-28T21:26:10.753Z,10.73
2019-04-28T21:28:40.825Z,10.07
2019-04-28T21:31:10.311Z,11.30
2019-04-28T21:33:40.867Z,10.93
2019-04-28T21:36:10.228Z,10.10
2019-04-28T21:38:39.852Z,9.87
2019-04-28T21:41:09.262Z,8.97
2019-04-28T21:43:48.389Z,9.20
2019-04-28T21:46:38.824Z,9.20
2019-04-28T21:49:25.790Z,8.77
2019-04-28T21:51:55.916Z,8.57
2019-04-28T21:54:25.962Z,9.13
2019-04-28T21:56:55.665Z,8.37
2019-04-28T21:59:25.879Z,7.80
2019-04-28T22:01:56.159Z,8.20
2019-04-28T22:04:25.852Z,8.17
2019-04-28T22:06:55.627Z,7.93
2019-04-28T22:09:25.132Z,7.70
2019-04-28T22:11:54.925Z,7.27
2019-04-28T22:14:24.332Z,7.13
2019-04-28T22:16:54.056Z,7.20
2019-04-28T22:19:23.566Z,7.63
2019-04-28T22:21:53.080Z,8.50
2019-04-28T22:24:41.273Z,8.47
2019-04-28T22:27:13.813Z,6.90
2019-04-28T22:29:44.270Z,6.83
2019-04-28T22:32:14.093Z,7.27
2019-04-28T22:34:44.093Z,7.70
2019-04-28T22:37:13.507Z,7.47
2019-04-28T22:39:42.966Z,7.70
2019-04-28T22:42:12.314Z,7.10
2019-04-28T22:44:41.989Z,6.83
2019-04-28T22:47:11.595Z,7.53
2019-04-28T22:49:41.228Z,6.53
2019-04-28T22:52:10.526Z,7.97
2019-04-28T22:55:08.604Z,7.13
2019-04-28T22:58:00.057Z,7.80
2019-04-28T23:00:54.756Z,7.20
2019-04-28T23:03:42.334Z,7.83
2019-04-28T23:06:12.314Z,7.57
2019-04-28T23:08:42.328Z,8.33
2019-04-28T23:11:11.712Z,7.83
2019-04-28T23:13:41.049Z,6.87
2019-04-28T23:16:10.683Z,8.30
2019-04-28T23:18:40.512Z,8.23
2019-04-28T23:21:21.268Z,7.77
2019-04-28T23:23:50.988Z,8.53
2019-04-28T23:26:21.302Z,7.67
2019-04-28T23:28:50.935Z,8.20
2019-04-28T23:31:20.609Z,9.00
2019-04-28T23:33:50.694Z,8.63
2019-04-28T23:36:20.691Z,9.00
2019-04-28T23:38:49.994Z,9.00
2019-04-28T23:41:32.094Z,8.37
2019-04-28T23:44:01.793Z,8.47
2019-04-28T23:46:49.345Z,8.13
2019-04-28T23:49:19.347Z,8.67
2019-04-28T23:51:56.694Z,7.77
2019-04-28T23:54:26.022Z,8.33
2019-04-28T23:56:55.335Z,9.10
2019-04-28T23:59:25.248Z,8.33
